createdAt,value
2017-07-10T00:00:55.641Z,18.6
2017-07-10T00:02:05.907Z,18.58
2017-07-10T00:03:16.184Z,18.52
2017-07-10T00:04:26.140Z,18.57
2017-07-10T00:05:35.778Z,18.51
2017-07-10T00:06:46.023Z,18.48
2017-07-10T00:07:55.972Z,18.51
2017-07-10T00:09:05.933Z,18.53
2017-07-10T00:10:16.243Z,18.46
2017-07-10T00:11:26.195Z,18.49
2017-07-10T00:12:36.397Z,18.42
2017-07-10T00:13:46.024Z,18.43
2017-07-10T00:14:56.306Z,18.51
2017-07-10T00:16:06.586Z,18.34
2017-07-10T00:17:16.530Z,18.42
2017-07-10T00:18:26.729Z,18.34
2017-07-10T00:19:37.023Z,18.34
2017-07-10T00:20:47.371Z,18.41
2017-07-10T00:21:57.016Z,18.36
2017-07-10T00:23:07.268Z,18.34
2017-07-10T00:24:17.787Z,18.31
2017-07-10T00:25:28.077Z,18.31
2017-07-10T00:26:38.350Z,18.37
2017-07-10T00:27:48.622Z,18.27
2017-07-10T00:28:58.574Z,18.23
2017-07-10T00:30:09.084Z,18.19
2017-07-10T00:31:19.042Z,18.26
2017-07-10T00:32:29.352Z,18.21
2017-07-10T00:33:39.634Z,18.21
2017-07-10T00:34:49.580Z,18.26
2017-07-10T00:36:00.151Z,18.26
2017-07-10T00:37:10.423Z,18.18
2017-07-10T00:38:20.388Z,18.23
2017-07-10T00:39:30.334Z,18.23
2017-07-10T00:40:39.982Z,18.21
2017-07-10T00:41:50.491Z,18.13
2017-07-10T00:43:00.451Z,18.06
2017-07-10T00:44:10.404Z,18.08
2017-07-10T00:45:20.685Z,18.16
2017-07-10T00:46:30.973Z,18.08
2017-07-10T00:47:41.489Z,18.13
2017-07-10T00:48:51.136Z,18.06
2017-07-10T00:50:01.407Z,18.03
2017-07-10T00:51:11.674Z,18.02
2017-07-10T00:52:21.636Z,18.08
2017-07-10T00:53:31.840Z,18.06
2017-07-10T00:54:42.114Z,17.94
2017-07-10T00:55:52.066Z,17.91
2017-07-10T00:57:01.718Z,17.9
2017-07-10T00:58:11.680Z,17.87
2017-07-10T00:59:22.196Z,17.82
2017-07-10T01:00:32.153Z,17.91
2017-07-10T01:01:41.780Z,17.86
2017-07-10T01:02:52.053Z,17.84
2017-07-10T01:04:02.034Z,17.8
2017-07-10T01:05:12.229Z,17.8
2017-07-10T01:06:22.183Z,17.84
2017-07-10T01:07:32.444Z,17.75
2017-07-10T01:08:42.693Z,17.73
2017-07-10T01:09:52.965Z,17.8
2017-07-10T01:11:03.554Z,17.75
2017-07-10T01:12:13.508Z,17.69
2017-07-10T01:13:23.780Z,17.66
2017-07-10T01:14:34.048Z,17.71
2017-07-10T01:15:44.012Z,17.69
2017-07-10T01:16:53.903Z,17.68
2017-07-10T01:18:04.182Z,17.57
2017-07-10T01:19:14.451Z,17.59
2017-07-10T01:20:24.721Z,17.63
2017-07-10T01:21:34.999Z,17.6
2017-07-10T01:22:45.518Z,17.63
2017-07-10T01:23:55.769Z,17.72
2017-07-10T01:25:05.404Z,17.49
2017-07-10T01:26:15.663Z,17.47
2017-07-10T01:27:25.599Z,17.56
2017-07-10T01:28:36.116Z,17.52
2017-07-10T01:29:46.077Z,17.47
2017-07-10T01:30:56.354Z,17.38
2017-07-10T01:32:06.295Z,17.38
2017-07-10T01:33:16.259Z,17.41
2017-07-10T01:34:26.777Z,17.41
2017-07-10T01:35:37.046Z,17.39
2017-07-10T01:36:47.003Z,17.35
2017-07-10T01:37:56.648Z,17.39
2017-07-10T01:39:06.622Z,17.42
2017-07-10T01:40:17.135Z,17.28
2017-07-10T01:41:27.405Z,17.27
2017-07-10T01:42:37.725Z,17.28
2017-07-10T01:43:47.997Z,17.31
2017-07-10T01:44:58.268Z,17.23
2017-07-10T01:46:08.490Z,17.3
2017-07-10T01:47:18.773Z,17.27
2017-07-10T01:48:29.033Z,17.14
2017-07-10T01:49:39.294Z,17.19
2017-07-10T01:50:49.220Z,17.2
2017-07-10T01:51:59.430Z,17.16
2017-07-10T01:53:09.700Z,17.13
2017-07-10T01:54:19.651Z,17.07
2017-07-10T01:55:29.917Z,17.04
2017-07-10T01:56:39.868Z,16.97
2017-07-10T01:57:49.756Z,17.01
2017-07-10T01:58:59.709Z,16.99
2017-07-10T02:00:09.653Z,16.95
2017-07-10T02:01:19.685Z,16.98
2017-07-10T02:02:29.952Z,16.98
2017-07-10T02:03:40.169Z,16.94
2017-07-10T02:04:50.451Z,16.91
2017-07-10T02:06:00.404Z,16.86
2017-07-10T02:07:10.040Z,16.82
2017-07-10T02:08:20.308Z,16.87
2017-07-10T02:09:29.870Z,16.82
2017-07-10T02:10:39.831Z,16.83
2017-07-10T02:11:49.798Z,16.79
2017-07-10T02:12:59.758Z,16.87
2017-07-10T02:14:10.029Z,16.72
2017-07-10T02:15:19.913Z,16.73
2017-07-10T02:16:30.179Z,16.72
2017-07-10T02:17:40.453Z,16.73
2017-07-10T02:18:50.407Z,16.79
2017-07-10T02:20:00.678Z,16.74
2017-07-10T02:21:11.237Z,16.76
2017-07-10T02:22:21.522Z,16.73
2017-07-10T02:23:31.789Z,16.72
2017-07-10T02:24:41.730Z,16.74
2017-07-10T02:25:52.007Z,16.73
2017-07-10T02:27:02.212Z,16.77
2017-07-10T02:28:11.839Z,16.72
2017-07-10T02:29:21.786Z,16.74
2017-07-10T02:30:31.736Z,16.76
2017-07-10T02:31:42.019Z,16.76
2017-07-10T02:32:52.223Z,16.74
2017-07-10T02:34:02.496Z,16.65
2017-07-10T02:35:12.425Z,16.66
2017-07-10T02:36:21.747Z,16.61
2017-07-10T02:37:31.998Z,16.66
2017-07-10T02:38:42.248Z,16.65
2017-07-10T02:39:51.882Z,16.64
2017-07-10T02:41:01.211Z,16.51
2017-07-10T02:42:11.149Z,16.54
2017-07-10T02:43:21.282Z,16.58
2017-07-10T02:44:31.875Z,16.57
2017-07-10T02:45:41.834Z,16.5
2017-07-10T02:46:51.783Z,16.5
2017-07-10T02:48:01.733Z,16.51
2017-07-10T02:49:11.997Z,16.57
2017-07-10T02:50:22.114Z,16.49
2017-07-10T02:51:32.059Z,16.59
2017-07-10T02:52:42.018Z,16.51
2017-07-10T02:53:51.967Z,16.59
2017-07-10T02:55:02.252Z,16.49
2017-07-10T02:56:12.763Z,16.5
2017-07-10T02:57:22.087Z,16.49
2017-07-10T02:58:32.347Z,16.5
2017-07-10T02:59:41.982Z,16.51
2017-07-10T03:00:51.932Z,16.46
2017-07-10T03:02:02.441Z,16.5
2017-07-10T03:03:12.709Z,16.43
2017-07-10T03:04:22.658Z,16.46
2017-07-10T03:05:32.608Z,16.47
2017-07-10T03:06:42.585Z,16.49
2017-07-10T03:07:52.532Z,16.41
2017-07-10T03:09:02.163Z,16.43
2017-07-10T03:10:12.097Z,16.43
2017-07-10T03:11:22.052Z,16.43
2017-07-10T03:12:32.312Z,16.46
2017-07-10T03:13:42.525Z,16.47
2017-07-10T03:14:52.797Z,16.46
2017-07-10T03:16:02.745Z,16.46
2017-07-10T03:17:12.700Z,16.47
2017-07-10T03:18:22.971Z,16.44
2017-07-10T03:19:32.551Z,16.57
2017-07-10T03:20:42.193Z,16.57
2017-07-10T03:21:52.463Z,16.57
2017-07-10T03:23:02.731Z,16.61
2017-07-10T03:24:12.992Z,16.57
2017-07-10T03:25:23.202Z,16.51
2017-07-10T03:26:33.473Z,16.49
2017-07-10T03:27:43.735Z,16.65
2017-07-10T03:28:54.020Z,16.66
2017-07-10T03:30:04.290Z,16.66
2017-07-10T03:31:14.805Z,16.69
2017-07-10T03:32:25.063Z,16.66
2017-07-10T03:33:35.000Z,16.8
2017-07-10T03:34:44.954Z,16.82
2017-07-10T03:35:54.591Z,16.83
2017-07-10T03:37:04.792Z,16.84
2017-07-10T03:38:14.421Z,16.91
2017-07-10T03:39:24.372Z,16.97
2017-07-10T03:40:34.398Z,16.97
2017-07-10T03:41:44.353Z,16.97
2017-07-10T03:42:54.878Z,16.98
2017-07-10T03:44:04.816Z,17.1
2017-07-10T03:45:14.440Z,17.04
2017-07-10T03:46:24.071Z,16.98
2017-07-10T03:47:34.016Z,17.05
2017-07-10T03:48:43.900Z,17.1
2017-07-10T03:49:54.171Z,17.09
2017-07-10T03:51:04.105Z,17.07
2017-07-10T03:52:14.070Z,17.14
2017-07-10T03:53:24.027Z,17.13
2017-07-10T03:54:34.293Z,17.12
2017-07-10T03:55:43.606Z,17.16
2017-07-10T03:56:53.889Z,17.16
2017-07-10T03:58:03.850Z,17.1
2017-07-10T03:59:13.823Z,17.19
2017-07-10T04:00:24.075Z,17.2
2017-07-10T04:01:34.349Z,17.13
2017-07-10T04:02:43.983Z,17.22
2017-07-10T04:03:54.258Z,17.2
2017-07-10T04:05:03.945Z,17.24
2017-07-10T04:06:14.101Z,17.16
2017-07-10T04:07:24.361Z,17.24
2017-07-10T04:08:34.605Z,17.22
2017-07-10T04:09:44.555Z,17.3
2017-07-10T04:10:54.507Z,17.27
2017-07-10T04:12:04.093Z,17.34
2017-07-10T04:13:14.053Z,17.38
2017-07-10T04:14:24.307Z,17.38
2017-07-10T04:15:34.575Z,17.37
2017-07-10T04:16:44.221Z,17.41
2017-07-10T04:17:54.801Z,17.38
2017-07-10T04:19:05.069Z,17.41
2017-07-10T04:20:15.350Z,17.52
2017-07-10T04:21:25.608Z,17.46
2017-07-10T04:22:35.870Z,17.52
2017-07-10T04:23:46.124Z,17.5
2017-07-10T04:24:56.009Z,17.52
2017-07-10T04:26:05.958Z,17.53
2017-07-10T04:27:16.214Z,17.65
2017-07-10T04:28:26.181Z,17.63
2017-07-10T04:29:36.390Z,17.71
2017-07-10T04:30:46.666Z,17.65
2017-07-10T04:31:56.959Z,17.63
2017-07-10T04:33:07.237Z,17.73
2017-07-10T04:34:17.517Z,17.76
2017-07-10T04:35:28.037Z,17.84
2017-07-10T04:36:37.676Z,17.78
2017-07-10T04:37:47.931Z,17.8
2017-07-10T04:38:57.885Z,17.88
2017-07-10T04:40:08.147Z,17.93
2017-07-10T04:41:18.378Z,18.02
2017-07-10T04:42:28.661Z,18.08
2017-07-10T04:43:38.925Z,18.05
2017-07-10T04:44:49.208Z,18.11
2017-07-10T04:45:59.474Z,18.13
2017-07-10T04:47:09.743Z,18.13
2017-07-10T04:48:19.399Z,18.27
2017-07-10T04:49:29.678Z,18.26
2017-07-10T04:50:39.958Z,18.23
2017-07-10T04:51:49.915Z,18.23
2017-07-10T04:52:59.794Z,18.3
2017-07-10T04:54:09.756Z,18.41
2017-07-10T04:55:20.039Z,18.34
2017-07-10T04:56:29.993Z,18.34
2017-07-10T04:57:39.621Z,18.41
2017-07-10T04:58:50.130Z,18.39
2017-07-10T05:00:00.094Z,18.37
2017-07-10T05:01:10.053Z,18.46
2017-07-10T05:02:19.696Z,18.51
2017-07-10T05:03:29.962Z,18.46
2017-07-10T05:04:40.160Z,18.46
2017-07-10T05:05:49.801Z,18.45
2017-07-10T05:06:59.776Z,18.46
2017-07-10T05:08:09.728Z,18.46
2017-07-10T05:09:19.370Z,18.57
2017-07-10T05:10:29.581Z,18.57
2017-07-10T05:11:39.542Z,18.76
2017-07-10T05:12:49.183Z,18.7
2017-07-10T05:13:58.815Z,18.78
2017-07-10T05:15:09.087Z,18.74
2017-07-10T05:16:19.035Z,18.85
2017-07-10T05:17:29.303Z,18.92
2017-07-10T05:18:38.940Z,18.92
2017-07-10T05:19:49.228Z,19
2017-07-10T05:20:58.858Z,18.97
2017-07-10T05:22:09.374Z,19.11
2017-07-10T05:23:19.329Z,19.16
2017-07-10T05:24:29.593Z,19.22
2017-07-10T05:25:39.232Z,19.2
2017-07-10T05:26:49.517Z,19.41
2017-07-10T05:27:59.405Z,19.35
2017-07-10T05:29:09.684Z,19.53
2017-07-10T05:30:19.643Z,19.38
2017-07-10T05:31:29.924Z,19.59
2017-07-10T05:32:40.245Z,19.47
2017-07-10T05:33:50.465Z,19.6
2017-07-10T05:35:00.426Z,19.63
2017-07-10T05:36:10.376Z,19.63
2017-07-10T05:37:20.340Z,19.53
2017-07-10T05:38:30.331Z,19.63
2017-07-10T05:39:40.199Z,19.56
2017-07-10T05:40:50.473Z,19.53
2017-07-10T05:42:00.733Z,19.62
2017-07-10T05:43:10.667Z,19.74
2017-07-10T05:44:20.608Z,19.75
2017-07-10T05:45:31.165Z,19.81
2017-07-10T05:46:41.425Z,19.81
2017-07-10T05:47:51.691Z,19.84
2017-07-10T05:49:01.985Z,20
2017-07-10T05:50:12.254Z,20.03
2017-07-10T05:51:22.204Z,20.11
2017-07-10T05:52:32.486Z,20.19
2017-07-10T05:53:42.760Z,20.17
2017-07-10T05:54:53.033Z,20.19
2017-07-10T05:56:03.324Z,20.36
2017-07-10T05:57:13.536Z,20.42
2017-07-10T05:58:23.824Z,20.46
2017-07-10T05:59:34.114Z,20.67
2017-07-10T06:00:44.067Z,20.66
2017-07-10T06:01:54.365Z,20.6
2017-07-10T06:03:04.563Z,20.7
2017-07-10T06:04:14.827Z,20.74
2017-07-10T06:05:24.783Z,20.88
2017-07-10T06:06:34.420Z,20.95
2017-07-10T06:07:44.393Z,20.95
2017-07-10T06:08:54.953Z,21.05
2017-07-10T06:10:05.239Z,21.03
2017-07-10T06:11:14.882Z,21.13
2017-07-10T06:12:25.169Z,21.23
2017-07-10T06:13:35.151Z,21.15
2017-07-10T06:14:45.693Z,21.15
2017-07-10T06:15:55.990Z,21.32
2017-07-10T06:17:06.266Z,21.17
2017-07-10T06:18:16.525Z,21.29
2017-07-10T06:19:26.500Z,21.29
2017-07-10T06:20:37.113Z,21.33
2017-07-10T06:21:47.397Z,21.41
2017-07-10T06:22:57.677Z,21.41
2017-07-10T06:24:07.952Z,21.44
2017-07-10T06:25:18.243Z,21.44
2017-07-10T06:26:28.843Z,21.54
2017-07-10T06:27:39.131Z,21.48
2017-07-10T06:28:49.442Z,21.58
2017-07-10T06:29:59.726Z,21.56
2017-07-10T06:31:10.002Z,21.56
2017-07-10T06:32:20.594Z,21.68
2017-07-10T06:33:30.553Z,21.74
2017-07-10T06:34:40.203Z,21.85
2017-07-10T06:35:50.178Z,21.92
2017-07-10T06:37:00.129Z,21.81
2017-07-10T06:38:10.658Z,21.63
2017-07-10T06:39:20.624Z,21.59
2017-07-10T06:40:30.610Z,21.63
2017-07-10T06:41:40.882Z,21.56
2017-07-10T06:42:50.869Z,21.66
2017-07-10T06:44:01.397Z,21.59
2017-07-10T06:45:11.674Z,21.69
2017-07-10T06:46:21.947Z,21.84
2017-07-10T06:47:32.221Z,21.94
2017-07-10T06:48:42.503Z,21.97
2017-07-10T06:49:52.725Z,22.19
2017-07-10T06:51:02.688Z,22.14
2017-07-10T06:52:12.957Z,22.18
2017-07-10T06:53:22.949Z,22.14
2017-07-10T06:54:33.241Z,22.14
2017-07-10T06:55:43.490Z,22.1
2017-07-10T06:56:53.790Z,22.07
2017-07-10T06:58:04.088Z,22.14
2017-07-10T06:59:14.368Z,22.16
2017-07-10T07:00:24.636Z,22.14
2017-07-10T07:01:35.165Z,22.16
2017-07-10T07:02:45.455Z,22.21
2017-07-10T07:03:55.792Z,22.22
2017-07-10T07:05:06.069Z,22.33
2017-07-10T07:06:16.362Z,22.33
2017-07-10T07:07:26.876Z,22.4
2017-07-10T07:08:36.550Z,22.4
2017-07-10T07:09:46.828Z,22.46
2017-07-10T07:10:57.106Z,22.58
2017-07-10T07:12:07.382Z,22.61
2017-07-10T07:13:17.918Z,22.67
2017-07-10T07:14:27.875Z,22.65
2017-07-10T07:15:38.157Z,22.67
2017-07-10T07:16:48.441Z,22.65
2017-07-10T07:17:58.923Z,22.67
2017-07-10T07:19:09.153Z,22.67
2017-07-10T07:20:19.442Z,22.7
2017-07-10T07:21:29.731Z,22.76
2017-07-10T07:22:39.667Z,22.81
2017-07-10T07:23:49.608Z,22.84
2017-07-10T07:24:59.818Z,22.88
2017-07-10T07:26:10.096Z,22.78
2017-07-10T07:27:20.389Z,22.78
2017-07-10T07:28:30.671Z,22.78
2017-07-10T07:29:40.941Z,22.84
2017-07-10T07:30:51.473Z,22.91
2017-07-10T07:32:01.764Z,22.84
2017-07-10T07:33:11.714Z,23.04
2017-07-10T07:34:21.674Z,22.99
2017-07-10T07:35:31.946Z,23.07
2017-07-10T07:36:42.474Z,23.07
2017-07-10T07:37:52.124Z,23.13
2017-07-10T07:39:02.079Z,23.17
2017-07-10T07:40:12.054Z,23.29
2017-07-10T07:41:22.332Z,23.28
2017-07-10T07:42:32.879Z,23.29
2017-07-10T07:43:43.167Z,23.26
2017-07-10T07:44:53.441Z,23.37
2017-07-10T07:46:03.746Z,23.26
2017-07-10T07:47:14.025Z,23.25
2017-07-10T07:48:24.243Z,23.32
2017-07-10T07:49:34.535Z,23.25
2017-07-10T07:50:44.810Z,23.23
2017-07-10T07:51:54.756Z,23.17
2017-07-10T07:53:04.721Z,23.06
2017-07-10T07:54:15.248Z,23.01
2017-07-10T07:55:25.523Z,22.98
2017-07-10T07:56:35.804Z,22.99
2017-07-10T07:57:45.446Z,23.01
2017-07-10T07:58:55.407Z,22.91
2017-07-10T08:00:05.964Z,22.96
2017-07-10T08:01:16.257Z,22.93
2017-07-10T08:02:26.542Z,22.99
2017-07-10T08:03:36.822Z,22.99
2017-07-10T08:04:47.118Z,22.96
2017-07-10T08:05:57.653Z,22.92
2017-07-10T08:07:07.942Z,22.92
2017-07-10T08:08:18.218Z,22.96
2017-07-10T08:09:28.505Z,22.99
2017-07-10T08:10:38.801Z,22.88
2017-07-10T08:11:49.317Z,22.63
2017-07-10T08:12:59.626Z,22.51
2017-07-10T08:14:09.914Z,22.23
2017-07-10T08:15:20.198Z,22.04
2017-07-10T08:16:30.170Z,21.75
2017-07-10T08:17:40.682Z,21.53
2017-07-10T08:18:50.958Z,21.38
2017-07-10T08:20:01.230Z,21.23
2017-07-10T08:21:11.510Z,21.1
2017-07-10T08:22:21.786Z,20.88
2017-07-10T08:23:32.038Z,20.66
2017-07-10T08:24:42.020Z,20.53
2017-07-10T08:25:52.292Z,20.34
2017-07-10T08:27:02.564Z,20.27
2017-07-10T08:28:12.543Z,20.1
2017-07-10T08:29:22.763Z,19.93
2017-07-10T08:30:32.736Z,19.82
2017-07-10T08:31:42.704Z,19.85
2017-07-10T08:32:53.188Z,19.67
2017-07-10T08:34:03.167Z,19.55
2017-07-10T08:35:13.704Z,19.52
2017-07-10T08:36:23.665Z,19.44
2017-07-10T08:37:33.925Z,19.41
2017-07-10T08:38:44.224Z,19.3
2017-07-10T08:39:54.176Z,19.24
2017-07-10T08:41:04.696Z,19.15
2017-07-10T08:42:14.650Z,19.09
2017-07-10T08:43:24.923Z,19.01
2017-07-10T08:44:34.886Z,18.88
2017-07-10T08:45:44.857Z,18.91
2017-07-10T08:46:55.391Z,18.86
2017-07-10T08:48:05.347Z,18.89
2017-07-10T08:49:15.630Z,18.76
2017-07-10T08:50:25.595Z,18.71
2017-07-10T08:51:35.860Z,18.55
2017-07-10T08:52:46.433Z,18.55
2017-07-10T08:53:56.722Z,18.42
2017-07-10T08:55:07.002Z,18.36
2017-07-10T08:56:17.300Z,18.24
2017-07-10T08:57:27.288Z,18.11
2017-07-10T08:58:37.478Z,17.95
2017-07-10T08:59:47.768Z,17.88
2017-07-10T09:00:58.424Z,17.75
2017-07-10T09:02:08.492Z,17.82
2017-07-10T09:03:18.625Z,17.76
2017-07-10T09:04:28.958Z,17.68
2017-07-10T09:05:39.242Z,17.5
2017-07-10T09:06:49.512Z,17.49
2017-07-10T09:07:59.797Z,17.41
2017-07-10T09:09:10.295Z,17.37
2017-07-10T09:10:20.842Z,17.28
2017-07-10T09:11:31.124Z,17.3
2017-07-10T09:12:41.130Z,17.27
2017-07-10T09:13:51.403Z,17.24
2017-07-10T09:15:01.683Z,17.22
2017-07-10T09:16:12.287Z,17.28
2017-07-10T09:17:22.563Z,17.3
2017-07-10T09:18:32.840Z,17.34
2017-07-10T09:19:43.106Z,17.41
2017-07-10T09:20:53.375Z,17.44
2017-07-10T09:22:03.605Z,17.42
2017-07-10T09:23:13.945Z,17.49
2017-07-10T09:24:24.249Z,17.44
2017-07-10T09:25:34.215Z,17.56
2017-07-10T09:26:44.489Z,17.63
2017-07-10T09:27:55.004Z,17.68
2017-07-10T09:29:04.949Z,17.78
2017-07-10T09:30:15.236Z,17.78
2017-07-10T09:31:25.201Z,17.86
2017-07-10T09:32:35.488Z,17.86
2017-07-10T09:33:46.083Z,17.91
2017-07-10T09:34:56.373Z,17.93
2017-07-10T09:36:06.020Z,17.94
2017-07-10T09:37:16.297Z,17.9
2017-07-10T09:38:26.241Z,17.75
2017-07-10T09:39:36.449Z,17.75
2017-07-10T09:40:46.762Z,17.69
2017-07-10T09:41:57.034Z,17.71
2017-07-10T09:43:07.349Z,17.65
2017-07-10T09:44:17.633Z,17.75
2017-07-10T09:45:28.178Z,17.66
2017-07-10T09:46:38.464Z,17.79
2017-07-10T09:47:48.446Z,17.76
2017-07-10T09:48:58.738Z,17.84
2017-07-10T09:50:08.998Z,17.86
2017-07-10T09:51:19.203Z,17.75
2017-07-10T09:52:29.508Z,17.82
2017-07-10T09:53:39.786Z,17.82
2017-07-10T09:54:50.074Z,17.86
2017-07-10T09:56:00.364Z,17.93
2017-07-10T09:57:10.890Z,18.06
2017-07-10T09:58:21.183Z,17.94
2017-07-10T09:59:31.509Z,17.88
2017-07-10T10:00:41.459Z,17.88
2017-07-10T10:01:51.749Z,17.87
2017-07-10T10:03:02.289Z,17.86
2017-07-10T10:04:12.245Z,17.88
2017-07-10T10:05:22.204Z,17.91
2017-07-10T10:06:32.151Z,17.93
2017-07-10T10:07:42.536Z,17.95
2017-07-10T10:08:53.056Z,17.94
2017-07-10T10:10:03.339Z,18.02
2017-07-10T10:11:13.284Z,17.94
2017-07-10T10:12:23.565Z,18.09
2017-07-10T10:13:33.846Z,18.06
2017-07-10T10:14:44.397Z,18.21
2017-07-10T10:15:54.358Z,18.27
2017-07-10T10:17:04.012Z,18.39
2017-07-10T10:18:13.670Z,18.43
2017-07-10T10:19:23.637Z,18.57
2017-07-10T10:20:34.137Z,18.68
2017-07-10T10:21:44.093Z,18.73
2017-07-10T10:22:54.390Z,18.76
2017-07-10T10:24:04.662Z,18.89
2017-07-10T10:25:14.314Z,19.07
2017-07-10T10:26:24.875Z,19.08
2017-07-10T10:27:35.162Z,19.22
2017-07-10T10:28:45.137Z,19.3
2017-07-10T10:29:55.428Z,19.32
2017-07-10T10:31:05.704Z,19.35
2017-07-10T10:32:16.239Z,19.35
2017-07-10T10:33:26.512Z,19.44
2017-07-10T10:34:36.788Z,19.59
2017-07-10T10:35:47.080Z,19.44
2017-07-10T10:36:57.358Z,19.32
2017-07-10T10:38:07.618Z,19.32
2017-07-10T10:39:17.573Z,19.26
2017-07-10T10:40:27.852Z,19.38
2017-07-10T10:41:38.125Z,19.32
2017-07-10T10:42:48.406Z,19.42
2017-07-10T10:43:58.917Z,19.45
2017-07-10T10:45:09.209Z,19.56
2017-07-10T10:46:19.561Z,19.55
2017-07-10T10:47:29.833Z,19.55
2017-07-10T10:48:40.126Z,19.62
2017-07-10T10:49:50.652Z,19.66
2017-07-10T10:51:00.929Z,19.6
2017-07-10T10:52:11.221Z,19.66
2017-07-10T10:53:21.497Z,19.71
2017-07-10T10:54:31.777Z,19.72
2017-07-10T10:55:42.302Z,19.6
2017-07-10T10:56:52.593Z,19.57
2017-07-10T10:58:02.562Z,19.49
2017-07-10T10:59:12.847Z,19.53
2017-07-10T11:00:23.144Z,19.53
2017-07-10T11:01:33.693Z,19.66
2017-07-10T11:02:43.954Z,19.71
2017-07-10T11:03:54.233Z,19.64
2017-07-10T11:05:04.815Z,19.57
2017-07-10T11:06:15.109Z,19.59
2017-07-10T11:07:25.667Z,19.39
2017-07-10T11:08:35.950Z,19.45
2017-07-10T11:09:46.244Z,19.44
2017-07-10T11:10:56.202Z,19.44
2017-07-10T11:12:06.505Z,19.47
2017-07-10T11:13:17.053Z,19.38
2017-07-10T11:14:27.015Z,19.41
2017-07-10T11:15:36.976Z,19.35
2017-07-10T11:16:47.254Z,19.38
2017-07-10T11:17:57.555Z,19.37
2017-07-10T11:19:07.797Z,19.37
2017-07-10T11:20:18.089Z,19.32
2017-07-10T11:21:28.078Z,19.24
2017-07-10T11:22:38.407Z,19.2
2017-07-10T11:23:48.702Z,19.17
2017-07-10T11:24:59.218Z,19.2
2017-07-10T11:26:09.182Z,19.07
2017-07-10T11:27:18.864Z,19.19
2017-07-10T11:28:28.833Z,19.04
2017-07-10T11:29:39.136Z,19.04
2017-07-10T11:30:49.351Z,19.07
2017-07-10T11:31:59.342Z,18.98
2017-07-10T11:33:09.640Z,18.89
2017-07-10T11:34:19.607Z,18.92
2017-07-10T11:35:29.902Z,18.88
2017-07-10T11:36:40.512Z,18.96
2017-07-10T11:37:50.795Z,19.11
2017-07-10T11:39:01.051Z,19.17
2017-07-10T11:40:11.059Z,19.22
2017-07-10T11:41:21.346Z,19.23
2017-07-10T11:42:31.875Z,19.32
2017-07-10T11:43:41.849Z,19.27
2017-07-10T11:44:51.807Z,19.39
2017-07-10T11:46:02.090Z,19.42
2017-07-10T11:47:12.391Z,19.53
2017-07-10T11:48:22.621Z,19.52
2017-07-10T11:49:32.897Z,19.53
2017-07-10T11:50:43.196Z,19.45
2017-07-10T11:51:53.489Z,19.44
2017-07-10T11:53:03.786Z,19.47
2017-07-10T11:54:14.063Z,19.41
2017-07-10T11:55:24.353Z,19.39
2017-07-10T11:56:34.632Z,19.56
2017-07-10T11:57:44.911Z,19.45
2017-07-10T11:58:55.216Z,19.44
2017-07-10T12:00:05.763Z,19.45
2017-07-10T12:01:16.054Z,19.48
2017-07-10T12:02:26.335Z,19.49
2017-07-10T12:03:36.618Z,19.37
2017-07-10T12:04:46.906Z,19.37
2017-07-10T12:05:57.453Z,19.42
2017-07-10T12:07:07.742Z,19.34
2017-07-10T12:08:17.718Z,19.3
2017-07-10T12:09:28.011Z,19.37
2017-07-10T12:10:38.315Z,19.32
2017-07-10T12:11:48.842Z,19.42
2017-07-10T12:12:58.812Z,19.35
2017-07-10T12:14:08.778Z,19.34
2017-07-10T12:15:19.049Z,19.35
2017-07-10T12:16:29.006Z,19.35
2017-07-10T12:17:39.541Z,19.32
2017-07-10T12:18:49.841Z,19.38
2017-07-10T12:19:59.494Z,19.45
2017-07-10T12:21:09.507Z,19.48
2017-07-10T12:22:19.789Z,19.48
2017-07-10T12:23:30.316Z,19.56
2017-07-10T12:24:40.576Z,19.39
2017-07-10T12:25:50.537Z,19.44
2017-07-10T12:27:00.817Z,19.52
2017-07-10T12:28:11.113Z,19.52
2017-07-10T12:29:21.384Z,19.56
2017-07-10T12:30:31.363Z,19.55
2017-07-10T12:31:41.645Z,19.52
2017-07-10T12:32:51.286Z,19.6
2017-07-10T12:34:01.589Z,19.52
2017-07-10T12:35:11.835Z,19.66
2017-07-10T12:36:22.109Z,19.57
2017-07-10T12:37:32.400Z,19.63
2017-07-10T12:38:42.367Z,19.63
2017-07-10T12:39:52.010Z,19.49
2017-07-10T12:41:02.551Z,19.62
2017-07-10T12:42:12.836Z,19.55
2017-07-10T12:43:22.806Z,19.59
2017-07-10T12:44:33.115Z,19.49
2017-07-10T12:45:43.079Z,19.52
2017-07-10T12:46:53.603Z,19.63
2017-07-10T12:48:03.900Z,19.67
2017-07-10T12:49:13.893Z,19.82
2017-07-10T12:50:24.174Z,19.81
2017-07-10T12:51:34.164Z,19.82
2017-07-10T12:52:44.408Z,19.93
2017-07-10T12:53:54.689Z,19.93
2017-07-10T12:55:04.977Z,19.99
2017-07-10T12:56:14.942Z,19.99
2017-07-10T12:57:25.234Z,19.97
2017-07-10T12:58:35.750Z,19.97
2017-07-10T12:59:46.019Z,20.15
2017-07-10T13:00:55.972Z,20.11
2017-07-10T13:02:06.263Z,20.19
2017-07-10T13:03:16.605Z,20.17
2017-07-10T13:04:27.131Z,20.1
2017-07-10T13:05:37.094Z,20.14
2017-07-10T13:06:47.407Z,20.03
2017-07-10T13:07:57.701Z,20.02
2017-07-10T13:09:07.700Z,19.99
2017-07-10T13:10:18.245Z,20.07
2017-07-10T13:11:28.523Z,20.1
2017-07-10T13:12:38.797Z,20.08
2017-07-10T13:13:49.110Z,20.07
2017-07-10T13:14:59.092Z,20.11
2017-07-10T13:16:09.348Z,19.97
2017-07-10T13:17:19.626Z,20.12
2017-07-10T13:18:29.914Z,20.07
2017-07-10T13:19:40.203Z,20.08
2017-07-10T13:20:50.485Z,20.11
2017-07-10T13:22:00.687Z,20.08
2017-07-10T13:23:10.959Z,19.94
2017-07-10T13:24:21.241Z,19.89
2017-07-10T13:25:31.513Z,19.99
2017-07-10T13:26:41.794Z,19.87
2017-07-10T13:27:52.010Z,19.85
2017-07-10T13:29:01.641Z,19.87
2017-07-10T13:30:11.644Z,19.99
2017-07-10T13:31:21.912Z,19.87
2017-07-10T13:32:31.882Z,19.96
2017-07-10T13:33:42.140Z,20
2017-07-10T13:34:52.412Z,19.94
2017-07-10T13:36:02.687Z,20.03
2017-07-10T13:37:12.952Z,20.02
2017-07-10T13:38:23.239Z,20.1
2017-07-10T13:39:33.829Z,20.07
2017-07-10T13:40:44.111Z,20.11
2017-07-10T13:41:54.387Z,20.22
2017-07-10T13:43:04.670Z,20.14
2017-07-10T13:44:14.941Z,20.3
2017-07-10T13:45:25.576Z,20.36
2017-07-10T13:46:35.855Z,20.19
2017-07-10T13:47:46.125Z,20.3
2017-07-10T13:48:56.136Z,20.3
2017-07-10T13:50:06.088Z,20.3
2017-07-10T13:51:16.297Z,20.39
2017-07-10T13:52:26.263Z,20.55
2017-07-10T13:53:36.528Z,20.58
2017-07-10T13:54:46.796Z,20.74
2017-07-10T13:55:56.799Z,21.03
2017-07-10T13:57:07.329Z,21.3
2017-07-10T13:58:17.602Z,21.35
2017-07-10T13:59:27.872Z,21.41
2017-07-10T14:00:37.504Z,21.23
2017-07-10T14:01:47.770Z,21.3
2017-07-10T14:02:58.313Z,21.25
2017-07-10T14:04:08.602Z,21.25
2017-07-10T14:05:18.872Z,21.3
2017-07-10T14:06:29.183Z,21.3
2017-07-10T14:07:39.452Z,21.43
2017-07-10T14:08:49.676Z,21.37
2017-07-10T14:09:59.336Z,21.44
2017-07-10T14:11:09.307Z,21.44
2017-07-10T14:12:19.265Z,21.56
2017-07-10T14:13:29.544Z,21.51
2017-07-10T14:14:39.433Z,21.6
2017-07-10T14:15:49.388Z,21.58
2017-07-10T14:16:59.360Z,21.63
2017-07-10T14:18:09.035Z,21.48
2017-07-10T14:19:19.345Z,21.56
2017-07-10T14:20:29.873Z,21.43
2017-07-10T14:21:39.836Z,21.54
2017-07-10T14:22:49.470Z,21.44
2017-07-10T14:23:59.724Z,21.41
2017-07-10T14:25:09.693Z,21.45
2017-07-10T14:26:20.228Z,21.35
2017-07-10T14:27:30.531Z,21.43
2017-07-10T14:28:40.475Z,21.43
2017-07-10T14:29:50.127Z,21.43
2017-07-10T14:30:59.759Z,21.4
2017-07-10T14:32:10.267Z,21.28
2017-07-10T14:33:20.537Z,21.37
2017-07-10T14:34:30.805Z,21.3
2017-07-10T14:35:40.758Z,21.44
2017-07-10T14:36:51.020Z,21.53
2017-07-10T14:38:00.941Z,21.53
2017-07-10T14:39:11.222Z,21.72
2017-07-10T14:40:21.511Z,21.88
2017-07-10T14:41:31.473Z,22.07
2017-07-10T14:42:41.754Z,22.23
2017-07-10T14:43:52.312Z,22.31
2017-07-10T14:45:02.290Z,22.43
2017-07-10T14:46:12.559Z,22.43
2017-07-10T14:47:22.864Z,22.52
2017-07-10T14:48:32.833Z,22.46
2017-07-10T14:49:43.356Z,22.16
2017-07-10T14:50:53.652Z,22.16
2017-07-10T14:52:03.619Z,21.89
2017-07-10T14:53:13.946Z,21.84
2017-07-10T14:54:24.220Z,21.75
2017-07-10T14:55:34.744Z,21.81
2017-07-10T14:56:45.036Z,21.69
2017-07-10T14:57:55.307Z,21.77
2017-07-10T14:59:05.574Z,21.85
2017-07-10T15:00:15.535Z,21.89
2017-07-10T15:01:26.124Z,21.85
2017-07-10T15:02:36.089Z,21.84
2017-07-10T15:03:46.370Z,22.06
2017-07-10T15:04:56.633Z,22.18
2017-07-10T15:06:06.600Z,22.33